sensor_id;sensor_type;location;lat;lon;timestamp;pressure;altitude;pressure_sealevel;temperature;humidity
20444;BME280;10381;53.730;10.010;2023-02-23T00:01:46;100863.34;;;5.49;100.00
20444;BME280;10381;53.730;10.010;2023-02-23T00:05:46;100861.84;;;5.45;100.00
20444;BME280;10381;53.730;10.010;2023-02-23T00:09:47;100863.19;;;5.38;100.00
20444;BME280;10381;53.730;10.010;2023-02-23T00:13:48;100860.25;;;5.43;100.00
20444;BME280;10381;53.730;10.010;2023-02-23T00:17:49;100857.94;;;5.38;100.00
20444;BME280;10381;53.730;10.010;2023-02-23T00:21:52;100845.41;;;5.29;100.00
20444;BME280;10381;53.730;10.010;2023-02-23T00:25:52;100856.03;;;5.27;100.00
20444;BME280;10381;53.730;10.010;2023-02-23T00:29:52;100851.81;;;5.25;100.00
20444;BME280;10381;53.730;10.010;2023-02-23T00:33:57;100844.72;;;5.12;100.00
20444;BME280;10381;53.730;10.010;2023-02-23T00:37:57;100848.03;;;5.02;100.00
20444;BME280;10381;53.730;10.010;2023-02-23T00:41:58;100844.66;;;5.00;100.00
20444;BME280;10381;53.730;10.010;2023-02-23T00:46:03;100843.63;;;5.02;100.00
20444;BME280;10381;53.730;10.010;2023-02-23T00:50:11;100840.81;;;5.05;100.00
20444;BME280;10381;53.730;10.010;2023-02-23T00:54:12;100848.25;;;4.99;100.00
20444;BME280;10381;53.730;10.010;2023-02-23T00:58:13;100844.41;;;4.90;100.00
20444;BME280;10381;53.730;10.010;2023-02-23T01:02:14;100844.53;;;4.88;100.00
20444;BME280;10381;53.730;10.010;2023-02-23T01:06:15;100848.81;;;4.89;100.00
20444;BME280;10381;53.730;10.010;2023-02-23T01:10:16;100849.84;;;4.87;100.00
20444;BME280;10381;53.730;10.010;2023-02-23T01:14:19;100850.81;;;4.86;100.00
20444;BME280;10381;53.730;10.010;2023-02-23T01:18:21;100846.88;;;4.79;100.00
20444;BME280;10381;53.730;10.010;2023-02-23T01:22:21;100843.31;;;4.80;100.00
20444;BME280;10381;53.730;10.010;2023-02-23T01:26:24;100842.75;;;4.75;100.00
20444;BME280;10381;53.730;10.010;2023-02-23T01:30:24;100840.59;;;4.81;100.00
20444;BME280;10381;53.730;10.010;2023-02-23T01:34:24;100843.69;;;4.74;100.00
20444;BME280;10381;53.730;10.010;2023-02-23T01:38:25;100833.66;;;4.80;100.00
20444;BME280;10381;53.730;10.010;2023-02-23T01:42:25;100835.34;;;4.81;100.00
20444;BME280;10381;53.730;10.010;2023-02-23T01:46:26;100836.34;;;4.93;100.00
20444;BME280;10381;53.730;10.010;2023-02-23T01:50:30;100833.53;;;4.96;100.00
20444;BME280;10381;53.730;10.010;2023-02-23T01:54:35;100826.41;;;4.98;100.00
20444;BME280;10381;53.730;10.010;2023-02-23T01:58:39;100825.59;;;5.10;100.00
20444;BME280;10381;53.730;10.010;2023-02-23T02:02:42;100824.31;;;5.03;100.00
20444;BME280;10381;53.730;10.010;2023-02-23T02:06:44;100819.06;;;5.03;100.00
20444;BME280;10381;53.730;10.010;2023-02-23T02:10:46;100817.03;;;4.94;100.00
20444;BME280;10381;53.730;10.010;2023-02-23T02:14:46;100818.72;;;4.81;100.00
20444;BME280;10381;53.730;10.010;2023-02-23T02:36:06;100812.16;;;4.32;100.00
20444;BME280;10381;53.730;10.010;2023-02-23T02:40:20;100812.09;;;4.34;100.00
20444;BME280;10381;53.730;10.010;2023-02-23T02:44:39;100816.38;;;4.35;100.00
20444;BME280;10381;53.730;10.010;2023-02-23T02:48:53;100817.03;;;4.53;100.00
20444;BME280;10381;53.730;10.010;2023-02-23T02:53:04;100813.34;;;4.97;100.00
20444;BME280;10381;53.730;10.010;2023-02-23T02:57:05;100811.19;;;5.03;100.00
20444;BME280;10381;53.730;10.010;2023-02-23T03:01:14;100810.13;;;5.33;100.00
20444;BME280;10381;53.730;10.010;2023-02-23T03:05:42;100816.03;;;5.49;100.00
20444;BME280;10381;53.730;10.010;2023-02-23T03:10:38;100813.09;;;5.54;100.00
20444;BME280;10381;53.730;10.010;2023-02-23T03:19:56;100814.25;;;5.63;100.00
20444;BME280;10381;53.730;10.010;2023-02-23T03:24:41;100816.28;;;5.72;100.00
20444;BME280;10381;53.730;10.010;2023-02-23T03:29:48;100811.75;;;5.74;100.00
20444;BME280;10381;53.730;10.010;2023-02-23T03:34:06;100812.50;;;5.76;100.00
20444;BME280;10381;53.730;10.010;2023-02-23T03:38:31;100806.09;;;5.80;100.00
20444;BME280;10381;53.730;10.010;2023-02-23T03:42:53;100808.50;;;5.83;100.00
20444;BME280;10381;53.730;10.010;2023-02-23T03:47:17;100798.00;;;5.83;100.00
20444;BME280;10381;53.730;10.010;2023-02-23T03:51:39;100807.03;;;5.79;100.00
20444;BME280;10381;53.730;10.010;2023-02-23T03:55:59;100801.38;;;5.85;100.00
20444;BME280;10381;53.730;10.010;2023-02-23T04:00:24;100806.63;;;5.85;100.00
20444;BME280;10381;53.730;10.010;2023-02-23T04:04:46;100804.91;;;5.84;100.00
20444;BME280;10381;53.730;10.010;2023-02-23T04:09:06;100809.25;;;5.85;100.00
20444;BME280;10381;53.730;10.010;2023-02-23T04:13:27;100808.28;;;5.86;100.00
20444;BME280;10381;53.730;10.010;2023-02-23T04:17:30;100803.69;;;5.90;100.00
20444;BME280;10381;53.730;10.010;2023-02-23T04:21:30;100810.41;;;5.94;100.00
20444;BME280;10381;53.730;10.010;2023-02-23T04:25:31;100808.13;;;6.02;100.00
20444;BME280;10381;53.730;10.010;2023-02-23T04:29:31;100811.28;;;5.94;100.00
20444;BME280;10381;53.730;10.010;2023-02-23T04:33:31;100814.66;;;5.96;100.00
20444;BME280;10381;53.730;10.010;2023-02-23T04:37:32;100813.91;;;5.94;100.00
20444;BME280;10381;53.730;10.010;2023-02-23T04:41:32;100810.09;;;5.98;100.00
20444;BME280;10381;53.730;10.010;2023-02-23T04:45:32;100812.94;;;6.08;100.00
20444;BME280;10381;53.730;10.010;2023-02-23T04:49:33;100806.53;;;6.12;100.00
20444;BME280;10381;53.730;10.010;2023-02-23T04:53:33;100812.09;;;6.08;100.00
20444;BME280;10381;53.730;10.010;2023-02-23T04:57:34;100816.94;;;6.01;100.00
20444;BME280;10381;53.730;10.010;2023-02-23T05:01:34;100810.00;;;6.00;100.00
20444;BME280;10381;53.730;10.010;2023-02-23T05:05:36;100815.69;;;6.07;100.00
20444;BME280;10381;53.730;10.010;2023-02-23T05:09:37;100813.06;;;6.07;100.00
20444;BME280;10381;53.730;10.010;2023-02-23T05:13:37;100807.38;;;6.13;100.00
20444;BME280;10381;53.730;10.010;2023-02-23T05:17:38;100811.25;;;6.20;100.00
20444;BME280;10381;53.730;10.010;2023-02-23T05:21:41;100809.59;;;6.19;100.00
20444;BME280;10381;53.730;10.010;2023-02-23T05:25:41;100816.75;;;6.17;100.00
20444;BME280;10381;53.730;10.010;2023-02-23T05:29:41;100807.88;;;6.18;100.00
20444;BME280;10381;53.730;10.010;2023-02-23T05:33:41;100813.28;;;6.16;100.00
20444;BME280;10381;53.730;10.010;2023-02-23T05:37:42;100806.44;;;6.14;100.00
20444;BME280;10381;53.730;10.010;2023-02-23T05:41:43;100815.06;;;6.16;100.00
20444;BME280;10381;53.730;10.010;2023-02-23T05:45:44;100815.69;;;6.19;100.00
20444;BME280;10381;53.730;10.010;2023-02-23T05:49:44;100816.66;;;6.18;100.00
20444;BME280;10381;53.730;10.010;2023-02-23T05:53:45;100800.84;;;6.18;100.00
20444;BME280;10381;53.730;10.010;2023-02-23T05:57:46;100802.63;;;6.18;100.00
20444;BME280;10381;53.730;10.010;2023-02-23T06:01:46;100808.75;;;6.18;100.00
20444;BME280;10381;53.730;10.010;2023-02-23T06:05:53;100807.19;;;6.16;100.00
20444;BME280;10381;53.730;10.010;2023-02-23T06:09:54;100808.34;;;6.12;100.00
20444;BME280;10381;53.730;10.010;2023-02-23T06:13:56;100810.31;;;6.08;100.00
20444;BME280;10381;53.730;10.010;2023-02-23T06:17:58;100813.81;;;6.09;100.00
20444;BME280;10381;53.730;10.010;2023-02-23T06:21:58;100826.09;;;6.08;100.00
20444;BME280;10381;53.730;10.010;2023-02-23T06:25:59;100828.00;;;6.06;100.00
20444;BME280;10381;53.730;10.010;2023-02-23T06:29:59;100832.31;;;6.07;100.00
20444;BME280;10381;53.730;10.010;2023-02-23T06:34:00;100840.13;;;6.09;100.00
20444;BME280;10381;53.730;10.010;2023-02-23T06:38:00;100846.81;;;6.13;100.00
20444;BME280;10381;53.730;10.010;2023-02-23T06:42:01;100844.41;;;6.10;100.00
20444;BME280;10381;53.730;10.010;2023-02-23T06:46:02;100852.31;;;6.10;100.00
20444;BME280;10381;53.730;10.010;2023-02-23T06:50:02;100850.41;;;6.12;100.00
20444;BME280;10381;53.730;10.010;2023-02-23T06:54:03;100850.19;;;6.15;100.00
20444;BME280;10381;53.730;10.010;2023-02-23T06:58:03;100863.88;;;6.07;100.00
20444;BME280;10381;53.730;10.010;2023-02-23T07:02:06;100870.09;;;6.06;100.00
20444;BME280;10381;53.730;10.010;2023-02-23T07:06:07;100869.88;;;6.09;100.00
20444;BME280;10381;53.730;10.010;2023-02-23T07:10:08;100869.75;;;6.11;100.00
20444;BME280;10381;53.730;10.010;2023-02-23T07:14:10;100868.72;;;6.13;100.00
20444;BME280;10381;53.730;10.010;2023-02-23T07:18:10;100878.59;;;6.10;100.00
20444;BME280;10381;53.730;10.010;2023-02-23T07:22:10;100883.66;;;6.13;100.00
20444;BME280;10381;53.730;10.010;2023-02-23T07:26:11;100881.75;;;6.15;100.00
20444;BME280;10381;53.730;10.010;2023-02-23T07:30:15;100884.53;;;6.13;100.00
20444;BME280;10381;53.730;10.010;2023-02-23T07:34:18;100882.19;;;6.09;100.00
20444;BME280;10381;53.730;10.010;2023-02-23T07:38:18;100892.28;;;6.15;100.00
20444;BME280;10381;53.730;10.010;2023-02-23T07:42:19;100892.94;;;6.18;100.00
20444;BME280;10381;53.730;10.010;2023-02-23T07:46:19;100893.34;;;6.25;100.00
20444;BME280;10381;53.730;10.010;2023-02-23T07:50:19;100902.50;;;6.19;100.00
20444;BME280;10381;53.730;10.010;2023-02-23T07:54:19;100897.97;;;6.22;100.00
20444;BME280;10381;53.730;10.010;2023-02-23T07:58:20;100908.19;;;6.26;100.00
20444;BME280;10381;53.730;10.010;2023-02-23T08:02:21;100912.09;;;6.21;100.00
20444;BME280;10381;53.730;10.010;2023-02-23T08:06:21;100917.00;;;6.25;100.00
20444;BME280;10381;53.730;10.010;2023-02-23T08:10:21;100918.28;;;6.19;100.00
20444;BME280;10381;53.730;10.010;2023-02-23T08:14:22;100923.63;;;6.18;100.00
20444;BME280;10381;53.730;10.010;2023-02-23T08:18:23;100915.75;;;6.18;100.00
20444;BME280;10381;53.730;10.010;2023-02-23T08:22:24;100918.81;;;6.25;100.00
20444;BME280;10381;53.730;10.010;2023-02-23T08:26:24;100919.84;;;6.22;100.00
20444;BME280;10381;53.730;10.010;2023-02-23T08:30:25;100927.22;;;6.17;100.00
20444;BME280;10381;53.730;10.010;2023-02-23T08:34:25;100927.00;;;6.20;100.00
20444;BME280;10381;53.730;10.010;2023-02-23T08:38:25;100931.88;;;6.26;100.00
20444;BME280;10381;53.730;10.010;2023-02-23T08:42:26;100932.69;;;6.27;100.00
20444;BME280;10381;53.730;10.010;2023-02-23T08:46:27;100924.69;;;6.15;100.00
20444;BME280;10381;53.730;10.010;2023-02-23T08:50:27;100927.44;;;6.14;100.00
20444;BME280;10381;53.730;10.010;2023-02-23T08:54:27;100926.16;;;6.07;100.00
20444;BME280;10381;53.730;10.010;2023-02-23T08:58:28;100928.06;;;6.05;100.00
20444;BME280;10381;53.730;10.010;2023-02-23T09:02:30;100936.69;;;6.19;100.00
20444;BME280;10381;53.730;10.010;2023-02-23T09:06:31;100927.63;;;6.11;100.00
20444;BME280;10381;53.730;10.010;2023-02-23T09:10:31;100928.44;;;5.98;100.00
20444;BME280;10381;53.730;10.010;2023-02-23T09:14:32;100926.31;;;5.91;100.00
20444;BME280;10381;53.730;10.010;2023-02-23T09:18:33;100933.34;;;5.90;100.00
20444;BME280;10381;53.730;10.010;2023-02-23T09:22:33;100937.59;;;5.66;100.00
20444;BME280;10381;53.730;10.010;2023-02-23T09:26:33;100933.44;;;5.76;100.00
20444;BME280;10381;53.730;10.010;2023-02-23T09:30:40;100937.19;;;5.72;100.00
20444;BME280;10381;53.730;10.010;2023-02-23T09:34:41;100938.69;;;5.76;100.00
20444;BME280;10381;53.730;10.010;2023-02-23T09:38:48;100939.97;;;5.83;100.00
20444;BME280;10381;53.730;10.010;2023-02-23T09:51:22;100947.59;;;6.01;100.00
20444;BME280;10381;53.730;10.010;2023-02-23T09:55:22;100950.81;;;5.91;100.00
20444;BME280;10381;53.730;10.010;2023-02-23T09:59:23;100951.50;;;5.95;100.00
20444;BME280;10381;53.730;10.010;2023-02-23T10:03:33;100956.44;;;6.00;100.00
20444;BME280;10381;53.730;10.010;2023-02-23T10:07:55;100952.78;;;5.75;100.00
20444;BME280;10381;53.730;10.010;2023-02-23T10:12:09;100957.13;;;5.89;100.00
20444;BME280;10381;53.730;10.010;2023-02-23T10:20:55;100961.41;;;6.04;100.00
20444;BME280;10381;53.730;10.010;2023-02-23T10:25:06;100966.44;;;5.94;100.00
20444;BME280;10381;53.730;10.010;2023-02-23T10:29:20;100971.56;;;5.96;100.00
20444;BME280;10381;53.730;10.010;2023-02-23T10:33:36;100970.13;;;6.05;100.00
20444;BME280;10381;53.730;10.010;2023-02-23T10:37:37;100976.88;;;6.09;100.00
20444;BME280;10381;53.730;10.010;2023-02-23T10:41:38;100977.84;;;6.21;100.00
20444;BME280;10381;53.730;10.010;2023-02-23T10:45:50;100972.13;;;6.01;100.00
20444;BME280;10381;53.730;10.010;2023-02-23T10:49:53;100980.69;;;6.17;100.00
20444;BME280;10381;53.730;10.010;2023-02-23T10:53:53;100976.75;;;5.97;100.00
20444;BME280;10381;53.730;10.010;2023-02-23T10:58:10;100976.91;;;6.22;100.00
20444;BME280;10381;53.730;10.010;2023-02-23T11:02:24;100975.59;;;6.02;100.00
20444;BME280;10381;53.730;10.010;2023-02-23T11:06:30;100979.00;;;6.16;100.00
20444;BME280;10381;53.730;10.010;2023-02-23T11:10:31;100980.44;;;5.95;100.00
20444;BME280;10381;53.730;10.010;2023-02-23T11:14:31;100971.69;;;5.94;100.00
20444;BME280;10381;53.730;10.010;2023-02-23T11:18:32;100969.97;;;6.33;100.00
20444;BME280;10381;53.730;10.010;2023-02-23T11:22:34;100964.97;;;6.03;100.00
20444;BME280;10381;53.730;10.010;2023-02-23T11:26:41;100963.44;;;6.13;100.00
20444;BME280;10381;53.730;10.010;2023-02-23T11:30:42;100962.38;;;6.42;100.00
20444;BME280;10381;53.730;10.010;2023-02-23T11:34:42;100958.06;;;6.66;100.00
20444;BME280;10381;53.730;10.010;2023-02-23T11:38:44;100954.19;;;6.21;100.00
20444;BME280;10381;53.730;10.010;2023-02-23T11:42:54;100948.91;;;6.46;100.00
20444;BME280;10381;53.730;10.010;2023-02-23T11:46:55;100937.78;;;6.43;100.00
20444;BME280;10381;53.730;10.010;2023-02-23T11:50:56;100924.91;;;6.76;100.00
20444;BME280;10381;53.730;10.010;2023-02-23T11:54:58;100913.75;;;6.60;100.00
20444;BME280;10381;53.730;10.010;2023-02-23T11:59:07;100894.56;;;6.71;100.00
20444;BME280;10381;53.730;10.010;2023-02-23T12:03:20;100893.81;;;6.81;100.00
20444;BME280;10381;53.730;10.010;2023-02-23T12:11:49;100870.25;;;7.04;100.00
20444;BME280;10381;53.730;10.010;2023-02-23T12:20:09;100864.25;;;6.65;100.00
20444;BME280;10381;53.730;10.010;2023-02-23T12:28:55;100855.84;;;6.97;100.00
20444;BME280;10381;53.730;10.010;2023-02-23T12:33:23;100862.78;;;6.74;100.00
20444;BME280;10381;53.730;10.010;2023-02-23T12:37:47;100862.25;;;7.06;100.00
20444;BME280;10381;53.730;10.010;2023-02-23T12:42:14;100858.78;;;7.05;100.00
20444;BME280;10381;53.730;10.010;2023-02-23T12:50:26;100859.13;;;7.24;100.00
20444;BME280;10381;53.730;10.010;2023-02-23T12:54:28;100859.38;;;7.09;100.00
20444;BME280;10381;53.730;10.010;2023-02-23T13:16:39;100847.91;;;7.34;100.00
20444;BME280;10381;53.730;10.010;2023-02-23T13:20:54;100845.19;;;7.46;100.00
20444;BME280;10381;53.730;10.010;2023-02-23T13:24:57;100846.72;;;7.38;100.00
20444;BME280;10381;53.730;10.010;2023-02-23T13:33:30;100838.22;;;7.10;100.00
20444;BME280;10381;53.730;10.010;2023-02-23T13:38:13;100837.13;;;7.13;100.00
20444;BME280;10381;53.730;10.010;2023-02-23T13:46:33;100830.19;;;7.12;100.00
20444;BME280;10381;53.730;10.010;2023-02-23T13:50:46;100830.31;;;7.10;100.00
20444;BME280;10381;53.730;10.010;2023-02-23T13:54:55;100825.53;;;7.15;100.00
20444;BME280;10381;53.730;10.010;2023-02-23T13:59:04;100834.84;;;7.08;100.00
20444;BME280;10381;53.730;10.010;2023-02-23T14:03:22;100833.94;;;6.96;100.00
20444;BME280;10381;53.730;10.010;2023-02-23T14:07:28;100830.69;;;6.93;100.00
20444;BME280;10381;53.730;10.010;2023-02-23T14:11:38;100840.03;;;6.97;100.00
20444;BME280;10381;53.730;10.010;2023-02-23T14:15:45;100848.69;;;6.99;100.00
20444;BME280;10381;53.730;10.010;2023-02-23T14:24:21;100844.75;;;7.04;100.00
20444;BME280;10381;53.730;10.010;2023-02-23T14:32:30;100845.16;;;7.11;100.00
20444;BME280;10381;53.730;10.010;2023-02-23T14:36:36;100843.75;;;7.18;100.00
20444;BME280;10381;53.730;10.010;2023-02-23T14:40:39;100844.72;;;7.17;100.00
20444;BME280;10381;53.730;10.010;2023-02-23T14:44:40;100844.72;;;7.17;100.00
20444;BME280;10381;53.730;10.010;2023-02-23T14:48:44;100843.88;;;7.17;100.00
20444;BME280;10381;53.730;10.010;2023-02-23T14:52:54;100849.59;;;7.11;100.00
20444;BME280;10381;53.730;10.010;2023-02-23T14:56:58;100844.41;;;7.09;100.00
20444;BME280;10381;53.730;10.010;2023-02-23T15:00:58;100837.63;;;7.18;100.00
20444;BME280;10381;53.730;10.010;2023-02-23T15:05:13;100852.88;;;7.25;100.00
20444;BME280;10381;53.730;10.010;2023-02-23T15:09:18;100838.06;;;7.12;100.00
20444;BME280;10381;53.730;10.010;2023-02-23T15:13:29;100844.91;;;6.90;100.00
20444;BME280;10381;53.730;10.010;2023-02-23T15:17:31;100855.38;;;6.79;100.00
20444;BME280;10381;53.730;10.010;2023-02-23T15:21:32;100859.34;;;6.85;100.00
20444;BME280;10381;53.730;10.010;2023-02-23T15:25:39;100866.00;;;6.77;100.00
20444;BME280;10381;53.730;10.010;2023-02-23T15:29:40;100865.91;;;6.66;100.00
20444;BME280;10381;53.730;10.010;2023-02-23T15:33:40;100872.88;;;6.67;100.00
20444;BME280;10381;53.730;10.010;2023-02-23T15:37:44;100867.09;;;6.62;100.00
20444;BME280;10381;53.730;10.010;2023-02-23T15:41:48;100870.16;;;6.56;100.00
20444;BME280;10381;53.730;10.010;2023-02-23T15:45:51;100866.91;;;6.52;100.00
20444;BME280;10381;53.730;10.010;2023-02-23T15:49:59;100874.69;;;6.54;100.00
20444;BME280;10381;53.730;10.010;2023-02-23T15:54:02;100869.75;;;6.49;100.00
20444;BME280;10381;53.730;10.010;2023-02-23T15:58:16;100876.28;;;6.44;100.00
20444;BME280;10381;53.730;10.010;2023-02-23T16:02:19;100887.03;;;6.40;100.00
20444;BME280;10381;53.730;10.010;2023-02-23T16:06:31;100882.91;;;6.36;100.00
20444;BME280;10381;53.730;10.010;2023-02-23T16:10:43;100892.50;;;6.25;100.00
20444;BME280;10381;53.730;10.010;2023-02-23T16:15:34;100894.53;;;5.81;100.00
20444;BME280;10381;53.730;10.010;2023-02-23T16:19:18;100895.31;;;5.56;100.00
20444;BME280;10381;53.730;10.010;2023-02-23T16:23:31;100885.84;;;5.53;100.00
20444;BME280;10381;53.730;10.010;2023-02-23T16:27:36;100884.16;;;5.52;100.00
20444;BME280;10381;53.730;10.010;2023-02-23T16:31:47;100875.53;;;5.50;100.00
20444;BME280;10381;53.730;10.010;2023-02-23T16:35:50;100874.06;;;5.46;100.00
20444;BME280;10381;53.730;10.010;2023-02-23T16:39:51;100871.06;;;5.38;100.00
20444;BME280;10381;53.730;10.010;2023-02-23T16:43:54;100870.38;;;5.22;100.00
20444;BME280;10381;53.730;10.010;2023-02-23T16:47:54;100877.28;;;5.10;100.00
20444;BME280;10381;53.730;10.010;2023-02-23T16:52:03;100868.19;;;5.01;100.00
20444;BME280;10381;53.730;10.010;2023-02-23T16:56:06;100861.44;;;4.97;100.00
20444;BME280;10381;53.730;10.010;2023-02-23T17:00:13;100876.03;;;4.88;100.00
20444;BME280;10381;53.730;10.010;2023-02-23T17:04:22;100870.50;;;4.79;100.00
20444;BME280;10381;53.730;10.010;2023-02-23T17:08:35;100879.72;;;4.72;100.00
20444;BME280;10381;53.730;10.010;2023-02-23T17:12:47;100877.91;;;4.72;100.00
20444;BME280;10381;53.730;10.010;2023-02-23T17:16:50;100875.59;;;4.67;100.00
20444;BME280;10381;53.730;10.010;2023-02-23T17:20:52;100877.44;;;4.65;100.00
20444;BME280;10381;53.730;10.010;2023-02-23T17:24:53;100882.78;;;4.64;100.00
20444;BME280;10381;53.730;10.010;2023-02-23T17:28:53;100888.31;;;4.59;100.00
20444;BME280;10381;53.730;10.010;2023-02-23T17:32:55;100888.44;;;4.58;100.00
20444;BME280;10381;53.730;10.010;2023-02-23T17:36:56;100898.25;;;4.54;100.00
20444;BME280;10381;53.730;10.010;2023-02-23T17:40:56;100901.81;;;4.53;100.00
20444;BME280;10381;53.730;10.010;2023-02-23T17:44:57;100899.41;;;4.50;100.00
20444;BME280;10381;53.730;10.010;2023-02-23T17:48:57;100897.13;;;4.44;100.00
20444;BME280;10381;53.730;10.010;2023-02-23T17:52:57;100894.16;;;4.36;100.00
20444;BME280;10381;53.730;10.010;2023-02-23T17:56:57;100912.66;;;4.33;100.00
20444;BME280;10381;53.730;10.010;2023-02-23T18:01:00;100903.47;;;4.25;100.00
20444;BME280;10381;53.730;10.010;2023-02-23T18:05:01;100905.81;;;4.16;100.00
20444;BME280;10381;53.730;10.010;2023-02-23T18:09:01;100918.50;;;3.93;100.00
20444;BME280;10381;53.730;10.010;2023-02-23T18:13:05;100894.06;;;3.78;100.00
20444;BME280;10381;53.730;10.010;2023-02-23T18:17:05;100892.78;;;3.70;100.00
20444;BME280;10381;53.730;10.010;2023-02-23T18:21:14;100882.53;;;3.51;100.00
20444;BME280;10381;53.730;10.010;2023-02-23T18:25:20;100892.69;;;3.41;100.00
20444;BME280;10381;53.730;10.010;2023-02-23T18:29:22;100888.72;;;3.34;100.00
20444;BME280;10381;53.730;10.010;2023-02-23T18:33:22;100893.50;;;3.27;100.00
20444;BME280;10381;53.730;10.010;2023-02-23T18:37:22;100885.38;;;3.16;100.00
20444;BME280;10381;53.730;10.010;2023-02-23T18:41:24;100889.34;;;3.07;100.00
20444;BME280;10381;53.730;10.010;2023-02-23T18:45:29;100904.19;;;2.91;100.00
20444;BME280;10381;53.730;10.010;2023-02-23T18:49:30;100903.03;;;2.96;100.00
20444;BME280;10381;53.730;10.010;2023-02-23T18:53:31;100902.75;;;2.85;100.00
20444;BME280;10381;53.730;10.010;2023-02-23T18:57:36;100905.22;;;2.72;100.00
20444;BME280;10381;53.730;10.010;2023-02-23T19:01:36;100902.31;;;2.61;100.00
20444;BME280;10381;53.730;10.010;2023-02-23T19:05:43;100910.09;;;2.45;100.00
20444;BME280;10381;53.730;10.010;2023-02-23T19:09:44;100897.81;;;2.47;100.00
20444;BME280;10381;53.730;10.010;2023-02-23T19:13:49;100901.88;;;2.53;100.00
20444;BME280;10381;53.730;10.010;2023-02-23T19:17:49;100902.44;;;2.42;100.00
20444;BME280;10381;53.730;10.010;2023-02-23T19:21:49;100897.84;;;2.30;100.00
20444;BME280;10381;53.730;10.010;2023-02-23T19:25:50;100894.47;;;2.28;100.00
20444;BME280;10381;53.730;10.010;2023-02-23T19:29:51;100901.53;;;2.26;100.00
20444;BME280;10381;53.730;10.010;2023-02-23T19:33:53;100896.81;;;2.17;100.00
20444;BME280;10381;53.730;10.010;2023-02-23T19:37:54;100900.91;;;2.05;100.00
20444;BME280;10381;53.730;10.010;2023-02-23T19:41:56;100895.28;;;2.12;100.00
20444;BME280;10381;53.730;10.010;2023-02-23T19:46:04;100900.66;;;2.09;100.00
20444;BME280;10381;53.730;10.010;2023-02-23T19:50:14;100904.97;;;1.93;100.00
20444;BME280;10381;53.730;10.010;2023-02-23T19:54:18;100902.63;;;2.04;100.00
20444;BME280;10381;53.730;10.010;2023-02-23T19:58:18;100892.72;;;2.11;100.00
20444;BME280;10381;53.730;10.010;2023-02-23T20:02:19;100900.03;;;2.04;100.00
20444;BME280;10381;53.730;10.010;2023-02-23T20:06:22;100899.91;;;2.07;100.00
20444;BME280;10381;53.730;10.010;2023-02-23T20:10:23;100898.91;;;2.26;100.00
20444;BME280;10381;53.730;10.010;2023-02-23T20:14:24;100895.66;;;2.38;100.00
20444;BME280;10381;53.730;10.010;2023-02-23T20:18:26;100898.91;;;2.43;100.00
20444;BME280;10381;53.730;10.010;2023-02-23T20:22:27;100897.22;;;2.42;100.00
20444;BME280;10381;53.730;10.010;2023-02-23T20:26:33;100897.44;;;2.38;100.00
20444;BME280;10381;53.730;10.010;2023-02-23T20:30:34;100892.44;;;2.33;100.00
20444;BME280;10381;53.730;10.010;2023-02-23T20:34:36;100891.38;;;2.37;100.00
20444;BME280;10381;53.730;10.010;2023-02-23T20:38:38;100881.69;;;2.39;100.00
20444;BME280;10381;53.730;10.010;2023-02-23T20:42:38;100879.50;;;2.47;100.00
20444;BME280;10381;53.730;10.010;2023-02-23T20:46:39;100877.47;;;2.52;100.00
20444;BME280;10381;53.730;10.010;2023-02-23T20:50:40;100879.13;;;2.55;100.00
20444;BME280;10381;53.730;10.010;2023-02-23T20:54:41;100878.84;;;2.60;100.00
20444;BME280;10381;53.730;10.010;2023-02-23T20:58:42;100875.31;;;2.61;100.00
20444;BME280;10381;53.730;10.010;2023-02-23T21:02:42;100876.84;;;2.65;100.00
20444;BME280;10381;53.730;10.010;2023-02-23T21:06:43;100875.72;;;2.69;100.00
20444;BME280;10381;53.730;10.010;2023-02-23T21:10:46;100880.41;;;2.80;100.00
20444;BME280;10381;53.730;10.010;2023-02-23T21:14:47;100877.53;;;2.84;100.00
20444;BME280;10381;53.730;10.010;2023-02-23T21:18:49;100871.94;;;2.90;100.00
20444;BME280;10381;53.730;10.010;2023-02-23T21:23:03;100867.66;;;2.89;100.00
20444;BME280;10381;53.730;10.010;2023-02-23T21:27:03;100861.47;;;2.90;100.00
20444;BME280;10381;53.730;10.010;2023-02-23T21:31:04;100856.25;;;2.90;100.00
20444;BME280;10381;53.730;10.010;2023-02-23T21:35:04;100853.97;;;3.00;100.00
20444;BME280;10381;53.730;10.010;2023-02-23T21:39:06;100855.75;;;2.99;100.00
20444;BME280;10381;53.730;10.010;2023-02-23T21:43:07;100852.19;;;3.01;100.00
20444;BME280;10381;53.730;10.010;2023-02-23T21:47:08;100845.19;;;3.01;100.00
20444;BME280;10381;53.730;10.010;2023-02-23T21:51:11;100845.19;;;3.01;100.00
20444;BME280;10381;53.730;10.010;2023-02-23T21:55:13;100845.19;;;3.01;100.00
20444;BME280;10381;53.730;10.010;2023-02-23T21:59:14;100842.16;;;3.09;100.00
20444;BME280;10381;53.730;10.010;2023-02-23T22:03:15;100850.00;;;3.09;100.00
20444;BME280;10381;53.730;10.010;2023-02-23T22:07:15;100834.47;;;3.06;100.00
20444;BME280;10381;53.730;10.010;2023-02-23T22:11:18;100833.59;;;3.05;100.00
20444;BME280;10381;53.730;10.010;2023-02-23T22:15:19;100832.50;;;3.09;100.00
20444;BME280;10381;53.730;10.010;2023-02-23T22:19:19;100823.00;;;3.08;100.00
20444;BME280;10381;53.730;10.010;2023-02-23T22:23:19;100817.38;;;3.14;100.00
20444;BME280;10381;53.730;10.010;2023-02-23T22:27:20;100827.34;;;3.08;100.00
20444;BME280;10381;53.730;10.010;2023-02-23T22:31:21;100815.78;;;3.12;100.00